Logo AVAMET
Benvolgut visitant, si us plau, ingressa Recuperar contrasenya

Vinalesa

Dades diàries. Acumulats / Últims 30 dies disponibles

Data Temperatura (°C) Humitat rel. (%) Pressió rel. (hPa) Vent (km/h) Precipitació
Mínima Mitjana Màxima Mínima Mitjana Màxima Mínima Mitjana Màxima Predom. Mitjana Ràfega
màxima
Total
(mm)
Índex-n
Mínima Mitjana Màxima Mínima Mitjana Màxima n P0
Dades mensuals acumulades fins l'últim dia disponible
08/2018 21,6 22,0 22,7 27,5 28,8 30,8 32,8   5,7 38,6 0,0
Dades anuals acumulades fins l'últim dia disponible
2018 1,3 12,7 23,9 17,1 8,7 21,7 36,1   5,6 67,6 227,6
Últims 30 dies disponibles
17-08-2018 21,8     26,3     28,8 W 5,3 25,7 0,0
16-08-2018 22,7     28,9     ENE 8,0 38,6 0,0
15-08-2018 21,6     27,3     32,8 W 3,9 24,1 0,0
28-07-2018 21,2     26,4     30,7 W 4,2 22,5 0,0
27-07-2018 22,1     25,9     29,9 W 4,5 25,7 0,0
26-07-2018 22,9     26,4     30,5 NW 3,5 25,7 0,0
25-07-2018 23,2     26,5     29,6 W 6,0 27,4 0,0
24-07-2018 22,1     26,5     31,1 WSW 6,0 30,6 0,0
23-07-2018 21,6     25,6     29,1 NW 4,2 25,7 0,0
22-07-2018 23,1     25,1     27,4 WSW 6,8 32,2 0,0
21-07-2018 23,2     25,8     28,4 W 6,3 27,4 0,0
20-07-2018 21,9     25,9     29,2 W 3,9 24,1 0,0
19-07-2018 21,8     25,8     29,3 W 4,3 24,1 0,0
18-07-2018 21,4     26,0     29,7 W 3,5 24,1 0,0
17-07-2018 21,8     26,3     28,8 W 5,3 25,7 0,0
16-07-2018 22,7     28,9     36,1 ENE 8,0 38,6 0,0
15-07-2018 21,6     27,3     32,8 W 3,9 24,1 0,0
14-07-2018 21,8     26,0     28,9 W 4,0 24,1 0,0
13-07-2018 23,9     26,1     29,0 W 6,8 27,4 0,0
12-07-2018 23,1     26,6     29,7 W 5,3 25,7 0,0
11-07-2018 22,6     26,0     29,2 W 5,1 27,4 0,0
10-07-2018 22,5     26,4     29,6 W 4,5 22,5 0,0
09-07-2018 21,4     26,6     31,5 WSW 5,5 35,4 0,0
08-07-2018 20,6     25,9     30,3 W 2,9 20,9 0,0
07-07-2018 20,3     25,3     28,8 W 4,0 24,1 0,0
06-07-2018 20,3     25,1     28,2 W 5,3 25,7 0,0
05-07-2018 19,8     25,6     28,9 W 4,3 27,4 0,0
04-07-2018 22,2     25,9     29,3 W 3,2 20,9 0,0
03-07-2018 20,8     25,6     29,2 W 5,6 27,4 0,0
02-07-2018 20,7     27,4     35,4 NW 3,9 45,1 0,0
Últims 13 mesos disponibles
07/2018 19,8 21,9 23,9 26,1 27,4 29,9 36,1 4,6 45,1 0,0
06/2018 14,2 18,6 22,4 23,0 23,1 26,8 30,8 4,9 38,6 66,8
05/2018 7,9 14,0 17,4 18,4 17,0 23,0 27,1 4,4 43,5 15,6
04/2018 6,8 11,3 15,6 15,8 14,2 20,4 25,9 6,7 61,2 26,0
03/2018 5,0 9,3 13,9 13,8 14,3 19,1 29,2 8,9 67,6 19,2
02/2018 1,3 5,5 10,5 9,8 8,7 14,6 22,9 4,0 41,8 54,8
01/2018 2,6 7,6 13,3 12,1 13,2 17,6 25,8 5,1 48,3 45,2
12/2017 1,9 6,4 12,3 11,3 11,2 16,6 22,9 4,9 62,8 0,8
11/2017 4,7 9,2 14,8 14,0 12,2 19,2 25,3 3,2 48,3 7,8
10/2017 11,6 15,4 19,3 19,8 20,2 24,7 30,2 3,1 38,6 10,8
09/2017 14,1 18,2 21,4 22,4 22,7 27,1 36,4 4,7 41,8 5,8
08/2017 15,8 21,8 24,6 25,6 25,4 29,3 35,3 4,4 41,8 32,4
07/2017 17,1 22,2 25,5 25,7 24,3 29,3 34,3 3,9 37,0 0,4
Tots els anys disponibles
2017 0,6 13,6 29,2 17,9 8,2 22,4 36,4 4,3 62,8 317,4
Temperatura (°C)
Humitat relativa (%)
Velocitat del vent (km/h) i direcció (°)
Pressió (hPa) i precipitació (mm)
Nota sobre les dades: s'avisa a l'usuari de la provisionalitat i no oficialitat d'aquestes dades
Logo AVAMET blanc
Llicència de Creative CommonsLa web d'AVAMET i els seus continguts estan subjectes a una llicència de
Reconeixement - No Comercial - Compartir igual
Properes estacions Borriol - Vall del Morico (Soci), Culla - Observatori astronòmic (Aj. soci), Requena - Finca San Blas  (AVAMET)    - - - - -    Últimes estacions: Elx - Torrellano/CEIP A. Machado (soci), Altea (Inforatge), Altea La Vella (Inforatge), Massamagrell - Aj. (Inforatge), La Pobla de Vallbona (Soci-Inforatge), Borriana - Aj. (Inforatge), Borriana - Santa Bàrbara (Inforatge), La Pobla de Benifassà-Coratxà (Nova Webcam d'AVAMET), Manises - La Presa (AVAMET), Enguera - Navalón (ADENE-Soci) - - - - - - - - - - - - Properes estacions Borriol - Vall del Morico (Soci), Culla - Observatori astronòmic (Aj. soci), Requena - Finca San Blas  (AVAMET)    - - - - -    Últimes estacions: Elx - Torrellano/CEIP A. Machado (soci), Altea (Inforatge), Altea La Vella (Inforatge), Massamagrell - Aj. (Inforatge), La Pobla de Vallbona (Soci-Inforatge), Borriana - Aj. (Inforatge), Borriana - Santa Bàrbara (Inforatge), La Pobla de Benifassà-Coratxà (Nova Webcam d'AVAMET), Manises - La Presa (AVAMET), Enguera - Navalón (ADENE-Soci)